createdAt,value
2018-06-22T00:02:24.749Z,101985.52
2018-06-22T00:04:53.413Z,101982.53
2018-06-22T00:07:22.193Z,101984.45
2018-06-22T00:09:50.923Z,101991.70
2018-06-22T00:12:19.729Z,101983.89
2018-06-22T00:14:48.313Z,101995.56
2018-06-22T00:17:17.001Z,101989.87
2018-06-22T00:19:45.787Z,101993.44
2018-06-22T00:22:14.401Z,101986.78
2018-06-22T00:24:42.980Z,101983.42
2018-06-22T00:27:11.655Z,101976.20
2018-06-22T00:29:40.293Z,101982.64
2018-06-22T00:32:08.893Z,101980.44
2018-06-22T00:34:37.414Z,101982.96
2018-06-22T00:37:06.277Z,101982.63
2018-06-22T00:39:34.859Z,101981.22
2018-06-22T00:42:03.461Z,101974.91
2018-06-22T00:44:31.996Z,101973.83
2018-06-22T00:47:00.693Z,101972.37
2018-06-22T00:49:29.196Z,101963.16
2018-06-22T00:51:57.720Z,101963.59
2018-06-22T00:54:26.316Z,101964.08
2018-06-22T00:56:54.841Z,101961.58
2018-06-22T00:59:23.408Z,101967.43
2018-06-22T01:01:51.908Z,101957.68
2018-06-22T01:04:20.508Z,101958.22
2018-06-22T01:06:49.049Z,101950.24
2018-06-22T01:09:17.604Z,101943.09
2018-06-22T01:11:46.225Z,101943.78
2018-06-22T01:14:14.780Z,101939.23
2018-06-22T01:16:43.404Z,101935.20
2018-06-22T01:19:12.024Z,101939.05
2018-06-22T01:21:40.575Z,101949.27
2018-06-22T01:24:09.206Z,101941.80
2018-06-22T01:26:37.755Z,101940.36
2018-06-22T01:29:11.517Z,101949.88
2018-06-22T01:31:40.059Z,101943.70
2018-06-22T01:34:08.836Z,101946.19
2018-06-22T01:36:37.381Z,101953.28
2018-06-22T01:39:07.759Z,101950.53
2018-06-22T01:41:36.354Z,101939.98
2018-06-22T01:44:05.049Z,101944.30
2018-06-22T01:46:33.924Z,101947.06
2018-06-22T01:49:02.565Z,101948.85
2018-06-22T01:51:31.119Z,101950.16
2018-06-22T01:53:59.644Z,101946.91
2018-06-22T01:56:28.227Z,101944.46
2018-06-22T01:58:56.812Z,101954.62
2018-06-22T02:01:25.393Z,101953.40
2018-06-22T02:03:53.972Z,101952.83
2018-06-22T02:06:22.647Z,101949.25
2018-06-22T02:08:51.252Z,101959.52
2018-06-22T02:11:19.890Z,101957.78
2018-06-22T02:13:48.460Z,101948.61
2018-06-22T02:16:17.181Z,101955.20
2018-06-22T02:18:46.036Z,101954.71
2018-06-22T02:21:14.614Z,101948.86
2018-06-22T02:23:43.228Z,101961.30
2018-06-22T02:26:11.828Z,101952.70
2018-06-22T02:28:40.464Z,101955.30
2018-06-22T02:31:09.034Z,101946.59
2018-06-22T02:33:37.608Z,101939.36
2018-06-22T02:36:06.233Z,101938.77
2018-06-22T02:38:34.788Z,101929.84
2018-06-22T02:41:06.067Z,101938.21
2018-06-22T02:43:35.520Z,101934.72
2018-06-22T02:46:04.769Z,101932.52
2018-06-22T02:48:33.426Z,101928.70
2018-06-22T02:51:02.046Z,101925.03
2018-06-22T02:53:30.683Z,101928.95
2018-06-22T02:55:59.256Z,101931.56
2018-06-22T02:58:27.936Z,101926.69
2018-06-22T03:00:56.544Z,101941.00
2018-06-22T03:03:25.072Z,101923.34
2018-06-22T03:05:53.659Z,101932.27
2018-06-22T03:08:22.331Z,101934.00
2018-06-22T03:10:50.884Z,101934.97
2018-06-22T03:13:19.517Z,101915.70
2018-06-22T03:15:48.134Z,101939.03
2018-06-22T03:18:16.802Z,101934.81
2018-06-22T03:20:45.393Z,101933.89
2018-06-22T03:23:13.997Z,101933.64
2018-06-22T03:25:42.706Z,101940.65
2018-06-22T03:28:11.357Z,101941.77
2018-06-22T03:30:39.991Z,101937.23
2018-06-22T03:33:08.608Z,101940.46
2018-06-22T03:35:37.148Z,101921.54
2018-06-22T03:38:06.230Z,101938.05
2018-06-22T03:40:34.792Z,101931.70
2018-06-22T03:43:03.437Z,101929.50
2018-06-22T03:45:31.992Z,101931.87
2018-06-22T03:48:00.657Z,101921.72
2018-06-22T03:50:29.213Z,101914.80
2018-06-22T03:52:57.797Z,101915.55
2018-06-22T03:55:26.413Z,101921.41
2018-06-22T03:57:55.063Z,101920.83
2018-06-22T04:00:23.644Z,101916.67
2018-06-22T04:02:52.324Z,101917.25
2018-06-22T04:05:21.028Z,101915.94
2018-06-22T04:07:49.600Z,101921.14
2018-06-22T04:10:18.339Z,101915.95
2018-06-22T04:12:47.052Z,101922.70
2018-06-22T04:15:15.876Z,101927.16
2018-06-22T04:17:49.004Z,101927.23
2018-06-22T04:20:17.889Z,101916.91
2018-06-22T04:22:46.486Z,101904.63
2018-06-22T04:25:15.064Z,101912.11
2018-06-22T04:27:43.595Z,101920.66
2018-06-22T04:30:12.176Z,101904.08
2018-06-22T04:32:40.813Z,101903.52
2018-06-22T04:35:09.748Z,101910.33
2018-06-22T04:37:38.755Z,101903.50
2018-06-22T04:40:07.334Z,101921.03
2018-06-22T04:42:36.198Z,101907.08
2018-06-22T04:45:05.160Z,101907.17
2018-06-22T04:47:33.821Z,101893.53
2018-06-22T04:50:02.908Z,101903.69
2018-06-22T04:52:31.689Z,101898.00
2018-06-22T04:55:00.371Z,101894.34
2018-06-22T04:57:28.889Z,101912.20
2018-06-22T04:59:57.427Z,101916.20
2018-06-22T05:02:26.073Z,101917.48
2018-06-22T05:04:54.676Z,101923.02
2018-06-22T05:07:23.261Z,101918.80
2018-06-22T05:09:51.868Z,101926.34
2018-06-22T05:12:20.542Z,101918.70
2018-06-22T05:14:49.185Z,101919.52
2018-06-22T05:17:17.745Z,101923.08
2018-06-22T05:19:46.401Z,101926.78
2018-06-22T05:22:14.986Z,101932.08
2018-06-22T05:24:43.545Z,101934.16
2018-06-22T05:27:12.112Z,101948.16
2018-06-22T05:29:40.780Z,101940.59
2018-06-22T05:32:09.382Z,101944.17
2018-06-22T05:34:37.930Z,101939.67
2018-06-22T05:37:06.559Z,101944.23
2018-06-22T05:39:35.244Z,101935.27
2018-06-22T05:42:03.981Z,101931.45
2018-06-22T05:44:32.758Z,101956.27
2018-06-22T05:47:01.433Z,101952.42
2018-06-22T05:49:30.161Z,101944.55
2018-06-22T05:51:58.728Z,101935.91
2018-06-22T05:54:27.537Z,101926.80
2018-06-22T05:56:56.183Z,101930.47
2018-06-22T05:59:24.872Z,101931.16
2018-06-22T06:01:53.675Z,101945.58
2018-06-22T06:04:22.397Z,101938.89
2018-06-22T06:06:51.156Z,101943.30
2018-06-22T06:09:19.805Z,101944.69
2018-06-22T06:11:48.465Z,101949.95
2018-06-22T06:14:17.152Z,101955.63
2018-06-22T06:16:45.828Z,101955.86
2018-06-22T06:19:14.573Z,101966.05
2018-06-22T06:21:43.245Z,101951.81
2018-06-22T06:24:11.940Z,101945.63
2018-06-22T06:26:40.569Z,101946.74
2018-06-22T06:29:09.188Z,101938.46
2018-06-22T06:31:37.698Z,101943.25
2018-06-22T06:34:06.368Z,101952.30
2018-06-22T06:36:34.925Z,101937.33
2018-06-22T06:39:04.367Z,101941.13
2018-06-22T06:41:34.130Z,101951.52
2018-06-22T06:44:04.073Z,101953.83
2018-06-22T06:46:33.109Z,101958.42
2018-06-22T06:49:01.792Z,101964.19
2018-06-22T06:51:30.467Z,101964.80
2018-06-22T06:53:59.256Z,101967.54
2018-06-22T06:56:28.032Z,101966.53
2018-06-22T06:58:56.690Z,101980.87
2018-06-22T07:01:25.336Z,101971.52
2018-06-22T07:03:53.953Z,101963.81
2018-06-22T07:06:22.621Z,101981.87
2018-06-22T07:08:51.413Z,101975.42
2018-06-22T07:11:20.296Z,101985.45
2018-06-22T07:13:48.984Z,101966.49
2018-06-22T07:16:17.694Z,101971.58
2018-06-22T07:18:46.413Z,101973.93
2018-06-22T07:21:15.176Z,101974.27
2018-06-22T07:23:43.744Z,101978.81
2018-06-22T07:26:12.695Z,101978.81
2018-06-22T07:28:41.475Z,102004.39
2018-06-22T07:31:10.180Z,101987.55
2018-06-22T07:33:38.876Z,101987.08
2018-06-22T07:36:07.590Z,101996.27
2018-06-22T07:38:36.209Z,101983.61
2018-06-22T07:41:05.105Z,102003.73
2018-06-22T07:43:33.707Z,101988.20
2018-06-22T07:46:02.557Z,101991.88
2018-06-22T07:48:31.368Z,102002.81
2018-06-22T07:51:00.069Z,101997.76
2018-06-22T07:53:28.705Z,101996.08
2018-06-22T07:55:57.705Z,101998.14
2018-06-22T07:58:26.324Z,101998.06
2018-06-22T08:00:54.922Z,101994.77
2018-06-22T08:03:23.563Z,102000.12
2018-06-22T08:05:52.261Z,101991.83
2018-06-22T08:08:20.849Z,101988.59
2018-06-22T08:10:50.031Z,101999.02
2018-06-22T08:13:18.760Z,101996.70
2018-06-22T08:15:48.069Z,101994.44
2018-06-22T08:18:17.013Z,102001.16
2018-06-22T08:23:28.253Z,102005.50
2018-06-22T08:25:59.040Z,102007.48
2018-06-22T08:28:27.752Z,102023.14
2018-06-22T08:30:56.409Z,102011.27
2018-06-22T08:33:25.105Z,102014.42
2018-06-22T08:35:53.829Z,102021.16
2018-06-22T08:38:22.563Z,102017.45
2018-06-22T08:40:51.309Z,102017.58
2018-06-22T08:43:20.187Z,102024.95
2018-06-22T08:45:48.781Z,102031.18
2018-06-22T08:48:17.593Z,102026.42
2018-06-22T08:50:46.569Z,102033.08
2018-06-22T08:53:15.231Z,102044.90
2018-06-22T08:55:43.864Z,102044.22
2018-06-22T08:58:15.683Z,102047.09
2018-06-22T09:00:44.524Z,102043.52
2018-06-22T09:03:13.210Z,102051.17
2018-06-22T09:05:41.977Z,102049.53
2018-06-22T09:08:18.344Z,102057.57
2018-06-22T09:10:46.989Z,102060.73
2018-06-22T09:13:16.184Z,102057.83
2018-06-22T09:15:44.827Z,102061.83
2018-06-22T09:18:13.734Z,102066.37
2018-06-22T09:20:45.368Z,102071.52
2018-06-22T09:23:17.573Z,102063.55
2018-06-22T09:25:46.563Z,102068.98
2018-06-22T09:28:15.416Z,102072.27
2018-06-22T09:30:47.313Z,102074.79
2018-06-22T09:33:15.924Z,102074.91
2018-06-22T09:35:46.366Z,102081.94
2018-06-22T09:38:15.037Z,102074.66
2018-06-22T09:40:43.632Z,102073.94
2018-06-22T09:43:12.274Z,102073.47
2018-06-22T09:45:40.924Z,102071.92
2018-06-22T09:48:09.544Z,102071.92
2018-06-22T09:50:38.385Z,102072.94
2018-06-22T09:53:07.776Z,102079.09
2018-06-22T09:55:36.885Z,102084.98
2018-06-22T09:58:09.610Z,102083.76
2018-06-22T10:00:38.566Z,102080.73
2018-06-22T10:03:08.386Z,102087.52
2018-06-22T10:05:36.972Z,102091.71
2018-06-22T10:08:05.931Z,102088.27
2018-06-22T10:10:34.726Z,102084.90
2018-06-22T10:13:06.168Z,102089.45
2018-06-22T10:15:36.082Z,102081.27
2018-06-22T10:18:04.882Z,102083.63
2018-06-22T10:20:36.232Z,102082.78
2018-06-22T10:23:10.446Z,102081.70
2018-06-22T10:25:40.043Z,102084.03
2018-06-22T10:28:09.969Z,102083.27
2018-06-22T10:30:39.009Z,102086.65
2018-06-22T10:33:10.476Z,102078.66
2018-06-22T10:35:39.144Z,102080.86
2018-06-22T10:38:08.038Z,102071.53
2018-06-22T10:40:37.253Z,102070.16
2018-06-22T10:43:06.232Z,102073.80
2018-06-22T10:45:35.369Z,102070.63
2018-06-22T10:48:04.221Z,102076.61
2018-06-22T10:50:33.607Z,102067.87
2018-06-22T10:53:02.813Z,102074.00
2018-06-22T10:55:31.912Z,102068.22
2018-06-22T10:58:00.777Z,102070.48
2018-06-22T11:00:29.491Z,102072.34
2018-06-22T11:02:58.249Z,102072.82
2018-06-22T11:05:27.320Z,102076.19
2018-06-22T11:08:01.745Z,102078.27
2018-06-22T11:10:32.936Z,102078.97
2018-06-22T11:13:01.889Z,102081.05
2018-06-22T11:15:31.260Z,102090.50
2018-06-22T11:18:00.049Z,102075.81
2018-06-22T11:20:28.943Z,102077.94
2018-06-22T11:22:57.820Z,102080.81
2018-06-22T11:25:26.643Z,102086.70
2018-06-22T11:27:55.536Z,102083.43
2018-06-22T11:30:24.293Z,102080.17
2018-06-22T11:32:52.957Z,102062.52
2018-06-22T11:35:21.762Z,102071.22
2018-06-22T11:37:50.390Z,102063.09
2018-06-22T11:40:19.145Z,102076.06
2018-06-22T11:42:47.925Z,102070.45
2018-06-22T11:45:16.807Z,102087.27
2018-06-22T11:47:46.688Z,102092.97
2018-06-22T11:50:16.024Z,102102.89
2018-06-22T11:52:45.295Z,102101.98
2018-06-22T11:55:14.254Z,102102.59
2018-06-22T11:57:43.174Z,102103.30
2018-06-22T12:00:11.934Z,102103.36
2018-06-22T12:02:41.879Z,102097.41
2018-06-22T12:05:11.595Z,102097.81
2018-06-22T12:07:40.664Z,102090.47
2018-06-22T12:10:11.420Z,102088.95
2018-06-22T12:12:40.089Z,102093.27
2018-06-22T12:15:08.758Z,102088.28
2018-06-22T12:17:38.082Z,102092.10
2018-06-22T12:20:06.903Z,102091.42
2018-06-22T12:22:35.674Z,102083.36
2018-06-22T12:25:05.558Z,102083.75
2018-06-22T12:27:34.307Z,102079.83
2018-06-22T12:30:03.369Z,102085.02
2018-06-22T12:32:32.148Z,102079.08
2018-06-22T12:35:02.796Z,102072.43
2018-06-22T12:37:31.949Z,102087.95
2018-06-22T12:40:00.627Z,102091.69
2018-06-22T12:42:31.157Z,102102.86
2018-06-22T12:44:59.911Z,102103.19
2018-06-22T12:47:28.688Z,102114.27
2018-06-22T12:50:00.710Z,102110.12
2018-06-22T12:52:29.549Z,102105.13
2018-06-22T12:54:58.335Z,102106.38
2018-06-22T12:57:27.816Z,102099.58
2018-06-22T12:59:56.680Z,102122.58
2018-06-22T13:02:32.122Z,102118.19
2018-06-22T13:05:01.778Z,102121.75
2018-06-22T13:07:31.005Z,102116.33
2018-06-22T13:10:00.110Z,102114.35
2018-06-22T13:12:28.881Z,102107.68
2018-06-22T13:14:57.640Z,102112.24
2018-06-22T13:17:26.296Z,102108.84
2018-06-22T13:19:55.039Z,102100.28
2018-06-22T13:22:24.352Z,102106.23
2018-06-22T13:24:53.300Z,102094.37
2018-06-22T13:27:22.697Z,102090.63
2018-06-22T13:29:51.566Z,102081.55
2018-06-22T13:32:20.379Z,102084.22
2018-06-22T13:35:10.775Z,102076.90
2018-06-22T13:37:39.517Z,102076.52
2018-06-22T13:40:08.597Z,102085.66
2018-06-22T13:42:45.921Z,102080.97
2018-06-22T13:45:15.039Z,102076.27
2018-06-22T13:47:48.865Z,102071.84
2018-06-22T13:50:17.745Z,102081.98
2018-06-22T13:52:50.904Z,102081.39
2018-06-22T13:55:20.500Z,102090.40
2018-06-22T13:57:49.640Z,102076.76
2018-06-22T14:00:18.515Z,102078.45
2018-06-22T14:02:47.168Z,102075.67
2018-06-22T14:05:21.347Z,102089.10
2018-06-22T14:07:51.130Z,102084.97
2018-06-22T14:10:19.871Z,102081.63
2018-06-22T14:12:49.249Z,102077.73
2018-06-22T14:15:18.244Z,102064.34
2018-06-22T14:17:46.960Z,102070.21
2018-06-22T14:20:16.256Z,102068.25
2018-06-22T14:22:44.907Z,102068.94
2018-06-22T14:25:13.761Z,102080.55
2018-06-22T14:27:42.598Z,102079.53
2018-06-22T14:30:11.351Z,102077.91
2018-06-22T14:32:40.045Z,102074.11
2018-06-22T14:35:08.959Z,102081.08
2018-06-22T14:37:37.946Z,102080.20
2018-06-22T14:40:07.322Z,102077.30
2018-06-22T14:42:36.094Z,102074.80
2018-06-22T14:45:04.986Z,102083.44
2018-06-22T14:47:37.972Z,102082.61
2018-06-22T14:50:10.868Z,102092.03
2018-06-22T14:52:39.638Z,102079.31
2018-06-22T14:55:14.595Z,102081.28
2018-06-22T14:57:48.341Z,102088.67
2018-06-22T15:00:22.166Z,102080.92
2018-06-22T15:02:56.038Z,102079.09
2018-06-22T15:05:30.699Z,102064.39
2018-06-22T15:08:01.728Z,102064.41
2018-06-22T15:10:30.505Z,102069.59
2018-06-22T15:13:00.948Z,102074.23
2018-06-22T15:15:29.840Z,102061.05
2018-06-22T15:17:58.743Z,102065.16
2018-06-22T15:20:29.313Z,102075.45
2018-06-22T15:22:57.962Z,102066.37
2018-06-22T15:25:26.603Z,102076.53
2018-06-22T15:27:55.336Z,102060.13
2018-06-22T15:30:24.074Z,102064.86
2018-06-22T15:32:52.997Z,102064.17
2018-06-22T15:35:26.869Z,102063.70
2018-06-22T15:38:00.961Z,102066.82
2018-06-22T15:40:35.038Z,102066.38
2018-06-22T15:43:09.156Z,102062.47
2018-06-22T15:45:43.095Z,102065.44
2018-06-22T15:48:17.027Z,102068.42
2018-06-22T15:50:51.073Z,102063.47
2018-06-22T15:53:24.852Z,102069.27
2018-06-22T15:55:57.560Z,102066.59
2018-06-22T15:58:26.364Z,102074.34
2018-06-22T16:00:55.478Z,102080.20
2018-06-22T16:03:29.313Z,102078.18
2018-06-22T16:05:58.020Z,102075.34
2018-06-22T16:08:31.176Z,102074.33
2018-06-22T16:10:59.945Z,102076.36
2018-06-22T16:13:28.626Z,102086.74
2018-06-22T16:16:02.819Z,102088.05
2018-06-22T16:18:37.045Z,102085.63
2018-06-22T16:21:10.940Z,102083.23
2018-06-22T16:23:44.780Z,102085.53
2018-06-22T16:27:19.778Z,102096.28
2018-06-22T16:29:49.368Z,102096.77
2018-06-22T16:32:19.249Z,102104.20
2018-06-22T16:34:47.948Z,102110.75
2018-06-22T16:37:19.088Z,102112.01
2018-06-22T16:39:48.302Z,102122.20
2018-06-22T16:42:17.950Z,102119.95
2018-06-22T16:44:47.522Z,102123.80
2018-06-22T16:47:16.658Z,102125.57
2018-06-22T16:49:45.457Z,102118.05
2018-06-22T16:52:14.159Z,102111.28
2018-06-22T16:54:42.901Z,102110.61
2018-06-22T16:57:11.618Z,102119.10
2018-06-22T16:59:40.425Z,102112.82
2018-06-22T17:02:09.197Z,102123.44
2018-06-22T17:04:37.956Z,102118.55
2018-06-22T17:07:12.979Z,102113.83
2018-06-22T17:09:47.088Z,102121.94
2018-06-22T17:12:21.746Z,102113.84
2018-06-22T17:14:55.631Z,102111.84
2018-06-22T17:17:30.880Z,102115.56
2018-06-22T17:19:59.855Z,102121.06
2018-06-22T17:22:29.083Z,102120.05
2018-06-22T17:24:59.548Z,102131.70
2018-06-22T17:27:28.383Z,102120.44
2018-06-22T17:29:57.212Z,102123.30
2018-06-22T17:32:26.143Z,102123.58
2018-06-22T17:34:54.997Z,102123.09
2018-06-22T17:37:23.715Z,102126.48
2018-06-22T17:39:52.340Z,102110.30
2018-06-22T17:42:21.025Z,102122.97
2018-06-22T17:44:49.749Z,102122.80
2018-06-22T17:47:18.713Z,102123.33
2018-06-22T17:49:47.405Z,102120.55
2018-06-22T17:52:16.174Z,102122.80
2018-06-22T17:54:44.875Z,102119.94
2018-06-22T17:57:14.165Z,102124.98
2018-06-22T17:59:48.050Z,102126.61
2018-06-22T18:02:22.560Z,102130.88
2018-06-22T18:04:56.419Z,102135.02
2018-06-22T18:07:30.329Z,102142.81
2018-06-22T18:10:11.525Z,102140.10
2018-06-22T18:12:47.135Z,102139.10
2018-06-22T18:15:16.492Z,102135.83
2018-06-22T18:17:46.383Z,102134.44
2018-06-22T18:20:15.312Z,102145.22
2018-06-22T18:22:44.421Z,102139.64
2018-06-22T18:25:15.436Z,102141.23
2018-06-22T18:27:45.520Z,102150.03
2018-06-22T18:30:15.506Z,102146.78
2018-06-22T18:32:44.369Z,102144.05
2018-06-22T18:35:14.466Z,102157.48
2018-06-22T18:37:43.280Z,102158.53
2018-06-22T18:40:12.492Z,102162.41
2018-06-22T18:42:44.898Z,102153.91
2018-06-22T18:45:19.290Z,102160.17
2018-06-22T18:47:48.746Z,102179.13
2018-06-22T18:50:18.616Z,102164.85
2018-06-22T18:52:53.192Z,102167.02
2018-06-22T18:55:27.227Z,102174.53
2018-06-22T18:58:01.145Z,102174.84
2018-06-22T19:00:35.052Z,102173.92
2018-06-22T19:03:09.001Z,102178.27
2018-06-22T19:05:38.121Z,102178.16
2018-06-22T19:08:08.720Z,102173.88
2018-06-22T19:10:40.014Z,102169.70
2018-06-22T19:13:08.803Z,102173.28
2018-06-22T19:15:37.618Z,102177.14
2018-06-22T19:18:18.057Z,102174.06
2018-06-22T19:20:47.502Z,102180.89
2018-06-22T19:23:16.276Z,102181.24
2018-06-22T19:25:45.358Z,102178.27
2018-06-22T19:28:16.096Z,102180.83
2018-06-22T19:30:48.875Z,102184.81
2018-06-22T19:33:18.683Z,102190.98
2018-06-22T19:35:50.245Z,102185.14
2018-06-22T19:38:19.084Z,102192.16
2018-06-22T19:40:48.592Z,102188.42
2018-06-22T19:43:23.289Z,102200.95
2018-06-22T19:45:57.033Z,102202.83
2018-06-22T19:48:29.854Z,102213.41
2018-06-22T19:51:03.621Z,102206.36
2018-06-22T19:53:37.375Z,102207.48
2018-06-22T19:56:06.381Z,102213.45
2018-06-22T19:58:35.138Z,102218.11
2018-06-22T20:01:04.107Z,102217.56
2018-06-22T20:03:32.897Z,102225.58
2018-06-22T20:06:01.590Z,102217.53
2018-06-22T20:08:30.256Z,102223.45
2018-06-22T20:10:59.062Z,102225.30
2018-06-22T20:13:27.932Z,102227.19
2018-06-22T20:15:57.050Z,102233.17
2018-06-22T20:18:25.665Z,102227.84
2018-06-22T20:20:54.627Z,102231.34
2018-06-22T20:23:23.422Z,102228.06
2018-06-22T20:25:52.216Z,102230.62
2018-06-22T20:28:20.986Z,102237.08
2018-06-22T20:30:49.720Z,102239.89
2018-06-22T20:33:21.324Z,102236.72
2018-06-22T20:35:55.593Z,102245.66
2018-06-22T20:38:29.437Z,102243.53
2018-06-22T20:41:03.262Z,102245.80
2018-06-22T20:43:36.928Z,102250.92
2018-06-22T20:46:05.927Z,102252.82
2018-06-22T20:48:39.560Z,102253.78
2018-06-22T20:51:08.273Z,102258.59
2018-06-22T20:53:36.948Z,102253.63
2018-06-22T20:56:05.688Z,102254.72
2018-06-22T20:58:34.297Z,102251.22
2018-06-22T21:01:03.011Z,102252.15
2018-06-22T21:03:31.668Z,102263.35
2018-06-22T21:06:00.387Z,102262.42
2018-06-22T21:08:28.989Z,102259.81
2018-06-22T21:10:57.630Z,102264.52
2018-06-22T21:13:26.421Z,102264.66
2018-06-22T21:15:55.122Z,102259.69
2018-06-22T21:18:23.800Z,102265.16
2018-06-22T21:20:57.767Z,102266.97
2018-06-22T21:23:26.629Z,102266.88
2018-06-22T21:25:55.301Z,102267.38
2018-06-22T21:28:29.288Z,102267.73
2018-06-22T21:31:03.137Z,102261.96
2018-06-22T21:33:36.906Z,102268.19
2018-06-22T21:36:10.808Z,102268.27
2018-06-22T21:38:44.587Z,102267.97
2018-06-22T21:41:13.192Z,102271.77
2018-06-22T21:43:41.951Z,102272.27
2018-06-22T21:46:10.740Z,102272.52
2018-06-22T21:48:39.476Z,102275.66
2018-06-22T21:51:08.394Z,102273.85
2018-06-22T21:53:37.152Z,102277.16
2018-06-22T21:56:06.061Z,102273.02
2018-06-22T21:58:34.784Z,102284.88
2018-06-22T22:01:03.509Z,102290.04
2018-06-22T22:03:32.216Z,102288.36
2018-06-22T22:06:01.113Z,102288.05
2018-06-22T22:08:29.853Z,102286.33
2018-06-22T22:11:03.682Z,102291.17
2018-06-22T22:13:32.597Z,102289.77
2018-06-22T22:16:01.528Z,102289.78
2018-06-22T22:18:30.163Z,102299.38
2018-06-22T22:21:00.059Z,102290.29
2018-06-22T22:23:28.689Z,102290.86
2018-06-22T22:25:57.320Z,102297.56
2018-06-22T22:28:26.112Z,102286.19
2018-06-22T22:30:54.711Z,102297.19
2018-06-22T22:33:23.450Z,102292.71
2018-06-22T22:35:51.964Z,102301.61
2018-06-22T22:38:20.797Z,102296.30
2018-06-22T22:40:49.382Z,102306.67
2018-06-22T22:43:17.920Z,102307.20
2018-06-22T22:45:46.551Z,102302.55
2018-06-22T22:48:15.186Z,102299.80
2018-06-22T22:50:43.772Z,102302.77
2018-06-22T22:53:12.426Z,102291.50
2018-06-22T22:55:41.045Z,102296.09
2018-06-22T22:58:09.785Z,102287.06
2018-06-22T23:00:38.452Z,102282.92
2018-06-22T23:03:07.172Z,102284.14
2018-06-22T23:05:35.829Z,102284.81
2018-06-22T23:08:04.389Z,102284.06
2018-06-22T23:10:33.218Z,102272.08
2018-06-22T23:13:01.830Z,102275.94
2018-06-22T23:15:30.506Z,102278.36
2018-06-22T23:17:59.168Z,102282.36
2018-06-22T23:20:27.800Z,102273.56
2018-06-22T23:23:07.388Z,102275.67
2018-06-22T23:25:36.065Z,102269.67
2018-06-22T23:28:04.710Z,102271.52
2018-06-22T23:30:33.504Z,102264.53
2018-06-22T23:33:02.055Z,102263.45
2018-06-22T23:35:30.829Z,102265.17
2018-06-22T23:37:59.501Z,102267.13
2018-06-22T23:40:28.070Z,102274.84
2018-06-22T23:42:56.741Z,102275.09
2018-06-22T23:45:25.521Z,102282.66
2018-06-22T23:47:54.269Z,102279.88
2018-06-22T23:50:23.111Z,102271.71
2018-06-22T23:52:52.008Z,102269.11
2018-06-22T23:55:20.972Z,102263.55
2018-06-22T23:57:49.950Z,102261.83
